createdAt,value
2023-03-02T08:54:56.067Z,1.98
2023-03-02T08:57:22.698Z,3.78
2023-03-02T08:59:49.278Z,4.15
2023-03-02T09:02:15.856Z,5.25
2023-03-02T09:04:42.783Z,6.03
2023-03-02T09:07:09.478Z,5.72
2023-03-02T09:09:36.095Z,5.28
2023-03-02T09:12:02.775Z,6.20
2023-03-02T09:14:29.384Z,5.85
2023-03-02T09:16:56.132Z,6.35
2023-03-02T09:19:22.832Z,8.25
2023-03-02T09:21:49.814Z,6.55
2023-03-02T09:24:16.407Z,7.55
2023-03-02T09:26:43.115Z,7.25
2023-03-02T09:29:09.721Z,7.85
2023-03-02T09:31:36.962Z,7.68
2023-03-02T09:34:03.896Z,6.95
2023-03-02T09:36:32.596Z,7.93
2023-03-02T09:38:59.285Z,7.80
2023-03-02T09:41:25.863Z,6.93
2023-03-02T09:43:52.425Z,7.22
2023-03-02T09:46:19.116Z,7.57
2023-03-02T09:48:45.693Z,7.20
2023-03-02T09:51:12.284Z,7.25
2023-03-02T09:53:38.889Z,6.13
2023-03-02T09:56:05.585Z,6.50
2023-03-02T09:58:32.158Z,6.25
2023-03-02T10:00:58.773Z,6.28
2023-03-02T10:03:25.350Z,7.53
2023-03-02T10:05:52.056Z,6.20
2023-03-02T10:08:18.739Z,5.50
2023-03-02T10:10:45.468Z,5.47
2023-03-02T10:13:12.139Z,5.88
2023-03-02T10:15:39.119Z,6.03
2023-03-02T10:18:05.754Z,5.78
2023-03-02T10:20:35.285Z,5.28
2023-03-02T10:23:01.858Z,5.53
2023-03-02T10:25:28.591Z,4.95
2023-03-02T10:27:55.396Z,5.30
2023-03-02T10:30:22.105Z,5.70
2023-03-02T10:32:48.719Z,5.47
2023-03-02T10:35:15.386Z,5.40
2023-03-02T10:37:42.069Z,5.20
2023-03-02T10:40:09.139Z,5.70
2023-03-02T10:42:35.727Z,5.95
2023-03-02T10:45:02.452Z,5.10
2023-03-02T10:47:29.044Z,5.45
2023-03-02T10:49:55.708Z,5.43
2023-03-02T10:52:22.317Z,5.47
2023-03-02T10:54:49.038Z,4.85
2023-03-02T10:57:15.616Z,5.10
2023-03-02T10:59:43.399Z,5.45
2023-03-02T11:02:10.146Z,4.95
2023-03-02T11:04:36.864Z,5.30
2023-03-02T11:07:03.477Z,4.68
2023-03-02T11:09:30.089Z,4.30
2023-03-02T11:11:57.108Z,4.45
2023-03-02T11:14:23.980Z,4.25
2023-03-02T11:16:50.835Z,4.32
2023-03-02T11:19:17.437Z,4.30
2023-03-02T11:21:44.126Z,4.53
